Latest Coastal Weather Observations for Lord Howe Island

IDN60701

Issued at 9:11 pm EDT Friday 24 March 2017 (issued every 10 minutes, with the page automatically refreshed every 10 minutes)

About coastal observations | Map of coastal stations | Coastal observations for NSW | Marine services | Other Formats
Station Details ID: 200839 Name: LORD HOWE ISLAND AERO Lat: -31.54 Lon: 159.08 Height: 5.0 m
Data from the previous 72 hours. | See also: Recent months at Lord Howe Island
Date/Time
EDT
Temp
°C
Wind Pressure Rain since
9am
mm
Weather Cloud Vis
km
Sea
Height
m
Swell
Dir  Spd
kts
Gust
kts
hPa Trend Height
m
Period
s
Dir
24/09:00pm 21.9 SSW 10 18 1015.5 - 0.4 - Mostly cloudy 10 - - - -
24/08:30pm 21.9 SSW 9 16 1015.2 - 0.4 - Partly cloudy 10 - - - -
24/08:00pm 22.4 SSW 11 20 1014.8 - 0.4 - Partly cloudy 10 - - - -
24/07:30pm 21.7 SSW 9 15 1014.7 - 0.4 - Partly cloudy 10 - - - -
24/07:00pm 21.8 SW 12 20 1014.6 - 0.4 - Partly cloudy 10 - - - -
24/06:30pm 22.5 SW 11 17 1014.4 - 0.4 - Partly cloudy 10 - - - -
24/06:00pm 22.7 SW 11 16 1014.4 - 0.4 - Mostly clear 10 - - - -
24/05:30pm 23.2 SW 11 15 1014.1 - 0.4 - Partly cloudy 10 - - - -
24/05:00pm 23.7 SW 9 15 1014.0 - 0.4 - Partly cloudy 10 - - - -
24/04:30pm 23.0 SW 12 19 1014.2 - 0.4 - Partly cloudy 10 - - - -
24/04:00pm 23.7 SW 11 16 1014.1 - 0.4 - Partly cloudy 10 - - - -
24/03:30pm 23.3 SW 11 15 1013.6 - 0.4 Showers Mostly clear 10 - - - -
24/03:00pm 23.6 WSW 7 9 1013.3 - 0.4 - Mostly clear 10 - - - -
24/02:30pm 24.6 WSW 10 16 1014.3 - 0.4 - Mostly clear 10 - - - -
24/02:00pm 24.2 WSW 7 10 1014.0 - 0.4 - Partly cloudy 10 - - - -
24/01:30pm 24.8 WSW 7 9 1014.2 - 0.4 - Mostly clear 10 - - - -
24/01:00pm 24.2 SW 8 11 1014.8 - 0.4 - Mostly clear 10 - - - -
24/12:30pm 25.1 SW 9 12 1015.4 - 0.2 - Mostly clear 10 - - - -
24/12:00pm 24.1 SW 8 11 1015.7 - 0.2 - Cloudy 10 - - - -
24/11:44am 22.9 SW 8 16 1016.1 - 0.2 Showers Mostly clear 10 - - - -
24/11:30am 24.4 SW 9 12 1016.2 - 0.0 Showers Mostly clear 3 - - - -
24/11:00am 24.5 SW 9 12 1016.0 - 0.0 - Mostly clear 10 - - - -
24/10:30am 24.3 WSW 9 12 1016.0 - 0.0 - Mostly clear 10 - - - -
24/10:00am 23.7 SW 7 11 1015.8 - 0.0 - Mostly clear 10 - - - -
24/09:30am 24.0 SW 8 12 1015.6 - 0.0 - Mostly clear 10 - - - -
24/09:00am 23.6 SW 8 12 1015.7 - 7.2 - Cloudy 10 - - - -
24/08:30am 23.6 SW 8 10 1015.6 - 7.2 - Mostly clear 10 - - - -
24/08:00am 22.8 SW 7 11 1015.2 - 7.2 Showers Mostly clear 10 - - - -
24/07:31am 23.1 SW 6 9 1015.0 - 7.2 - Partly cloudy 10 - - - -
24/07:30am 23.1 SW 6 9 1015.0 - 7.2 - Partly cloudy 10 - - - -
24/07:00am 22.9 SW 6 9 1014.7 - 7.2 - Partly cloudy 10 - - - -
24/06:39am 22.7 SW 7 9 1014.7 - 7.2 - Partly cloudy 10 - - - -
24/06:30am 22.7 SW 7 10 1014.6 - 7.2 - Partly cloudy 10 - - - -
24/06:00am 22.7 SW 7 11 1014.3 - 7.2 - - 10 - - - -
24/05:30am 22.5 SSW 6 8 1014.3 - 7.2 - Partly cloudy 10 - - - -
24/05:00am 22.4 SSW 5 7 1014.1 - 7.2 - Partly cloudy 10 - - - -
24/04:32am 22.5 WSW 5 8 1014.2 - 7.2 - Partly cloudy 10 - - - -
24/04:30am 22.6 WSW 6 8 1014.2 - 7.2 - Partly cloudy 10 - - - -
24/04:20am 22.4 SW 5 9 1014.3 - 7.2 - Partly cloudy 10 - - - -
24/04:00am 22.2 SW 5 6 1014.4 - 7.2 - Partly cloudy 5 - - - -
24/03:43am 22.4 SW 7 12 1014.4 - 5.0 - Partly cloudy 6 - - - -
24/03:30am 23.3 W 7 8 1014.4 - 4.2 - Partly cloudy 10 - - - -
24/03:00am 23.4 W 7 9 1014.5 - 4.2 - Cloudy 10 - - - -
24/02:55am 23.4 WSW 6 8 1014.5 - 4.2 - Partly cloudy 10 - - - -
24/02:37am 23.2 W 8 9 1014.7 - 4.2 - Partly cloudy 10 - - - -
24/02:30am 23.2 WSW 8 10 1014.7 - 4.2 - Partly cloudy 10 - - - -
24/02:00am 23.4 W 9 12 1014.9 - 4.2 - Partly cloudy 10 - - - -
24/01:30am 23.5 W 9 12 1015.2 - 4.2 - Partly cloudy 10 - - - -
24/01:00am 23.2 W 11 13 1015.4 - 4.2 - Partly cloudy 10 - - - -
24/12:42am 23.3 W 11 13 1015.5 - 4.2 - Partly cloudy 10 - - - -
24/12:30am 23.3 W 11 13 1015.5 - 4.2 - Partly cloudy 10 - - - -
24/12:00am 23.3 W 11 13 1015.6 - 4.2 - Cloudy 10 - - - -
 
Date/Time
EDT
Temp
°C
Wind Pressure Rain since
9am
mm
Weather Cloud Vis
km
Sea
Height
m
Swell
Dir  Spd
kts
Gust
kts
hPa Trend Height
m
Period
s
Dir
23/11:30pm 23.3 W 12 15 1016.1 - 4.2 - Partly cloudy 10 - - - -
23/11:24pm 23.2 W 12 14 1016.1 - 4.2 - Partly cloudy 10 - - - -
23/11:00pm 23.2 W 11 14 1016.2 - 4.2 - Partly cloudy 10 - - - -
23/10:54pm 23.4 W 11 13 1016.3 - 4.2 - Partly cloudy 10 - - - -
23/10:53pm 23.3 W 11 13 1016.3 - 4.2 - Partly cloudy 10 - - - -
23/10:30pm 23.3 WSW 11 15 1016.3 - 4.2 - Partly cloudy 10 - - - -
23/10:14pm 23.3 WSW 11 15 1016.3 - 4.2 - Partly cloudy 10 - - - -
23/10:00pm 23.3 WSW 10 13 1016.3 - 4.2 - Partly cloudy 10 - - - -
23/09:51pm 23.5 W 12 15 1016.2 - 4.2 - Partly cloudy 10 - - - -
23/09:30pm 23.4 W 14 17 1016.3 - 4.2 - Partly cloudy 10 - - - -
23/09:00pm 23.2 W 10 15 1016.2 - 4.2 - Cloudy 10 - - - -
23/08:44pm 23.0 W 7 10 1016.1 - 4.2 - Partly cloudy 10 - - - -
23/08:32pm 22.8 W 9 13 1016.2 - 4.2 - Partly cloudy 4 - - - -
23/08:30pm 22.8 W 10 14 1016.1 - 4.2 - Partly cloudy 2 - - - -
23/08:21pm 23.3 W 12 19 1016.1 - 2.2 - Partly cloudy 4 - - - -
23/08:00pm 24.3 NNW 8 13 1015.7 - 0.0 - Partly cloudy 10 - - - -
23/07:30pm 24.1 NW 7 14 1015.6 - 0.0 - Partly cloudy 10 - - - -
23/07:00pm 24.2 NW 7 14 1015.6 - 0.0 - Partly cloudy 10 - - - -
23/06:30pm 24.4 NW 9 14 1015.5 - 0.0 - - 10 - - - -
23/06:00pm 24.4 NW 7 12 1015.7 - 0.0 - - 10 - - - -
23/05:30pm 24.5 NW 7 13 1015.7 - 0.0 - Partly cloudy 10 - - - -
23/05:00pm 24.6 NW 7 13 1015.6 - 0.0 - Partly cloudy 10 - - - -
23/04:30pm 24.9 NW 7 13 1015.8 - 0.0 - Cloudy 10 - - - -
23/04:00pm 24.8 NW 7 13 1015.9 - 0.0 - Mostly clear 10 - - - -
23/03:30pm 24.9 NW 7 13 1015.9 - 0.0 - Mostly clear 10 - - - -
23/03:00pm 25.1 NW 8 16 1016.1 - 0.0 - Cloudy 10 - - - -
23/02:30pm 25.1 NW 8 15 1016.3 - 0.0 - Mostly clear 10 - - - -
23/02:00pm 26.0 WNW 7 11 1016.3 - 0.0 - Mostly clear 10 - - - -
23/01:46pm 25.9 WNW 7 12 1016.5 - 0.0 - Partly cloudy 10 - - - -
23/01:30pm 25.6 NW 9 15 1016.8 - 0.0 - Mostly clear 10 - - - -
23/01:00pm 26.0 NNW 6 12 1016.8 - 0.0 - Mostly clear 10 - - - -
23/12:30pm 25.2 NW 7 13 1017.2 - 0.0 - Mostly clear 10 - - - -
23/12:00pm 25.0 WNW 9 15 1017.7 - 0.0 - Cloudy 10 - - - -
23/11:30am 25.8 NNW 6 13 1017.6 - 0.0 - Mostly clear 10 - - - -
23/11:00am 25.4 N 9 15 1017.6 - 0.0 - Mostly clear 10 - - - -
23/10:30am 25.2 NW 7 13 1017.8 - 0.0 - Mostly clear 10 - - - -
23/10:00am 24.9 NW 5 9 1017.9 - 0.0 - Mostly clear 10 - - - -
23/09:30am 25.2 NNW 7 14 1017.5 - 0.0 - Mostly clear 10 - - - -
23/09:00am 24.4 N 6 10 1017.2 - 0.0 - Partly cloudy 10 - - - -
23/08:30am 24.4 NNW 5 10 1017.2 - 0.0 - Mostly clear 10 - - - -
23/08:00am 24.1 NNW 6 15 1017.0 - 0.0 - Mostly clear 10 - - - -
23/07:53am 24.1 NNW 5 7 1017.0 - 0.0 - Partly cloudy 10 - - - -
23/07:30am 24.0 NW 6 9 1016.9 - 0.0 - Partly cloudy 10 - - - -
23/07:00am 23.7 NW 5 11 1016.9 - 0.0 - Partly cloudy 10 - - - -
23/06:30am 23.4 N 3 8 1016.7 - 0.0 - - 10 - - - -
23/06:00am 23.4 N 5 10 1016.8 - 0.0 - Partly cloudy 10 - - - -
23/05:30am 23.5 N 4 8 1016.7 - 0.0 - Partly cloudy 10 - - - -
23/05:00am 23.4 NNW 3 7 1016.6 - 0.0 - Partly cloudy 10 - - - -
23/04:30am 23.5 N 4 8 1016.5 - 0.0 - Partly cloudy 10 - - - -
23/04:00am 23.3 N 3 5 1016.3 - 0.0 - Partly cloudy 10 - - - -
23/03:30am 23.3 NNE 5 9 1016.2 - 0.0 - Partly cloudy 10 - - - -
23/03:00am 23.4 N 5 8 1016.4 - 0.0 - Partly cloudy 10 - - - -
23/02:30am 23.3 NNE 5 8 1016.7 - 0.0 - - 10 - - - -
23/02:00am 23.2 NNE 5 8 1016.9 - 0.0 - - 10 - - - -
23/01:30am 23.2 N 5 8 1017.4 - 0.0 - Partly cloudy 10 - - - -
23/01:00am 23.2 NNE 5 9 1017.6 - 0.0 - - 10 - - - -
23/12:30am 23.2 N 6 9 1017.8 - 0.0 - Partly cloudy 10 - - - -
23/12:00am 23.2 N 6 10 1017.9 - 0.0 - - 10 - - - -
 
Date/Time
EDT
Temp
°C
Wind Pressure Rain since
9am
mm
Weather Cloud Vis
km
Sea
Height
m
Swell
Dir  Spd
kts
Gust
kts
hPa Trend Height
m
Period
s
Dir
22/11:30pm 23.2 NNE 6 9 1018.2 - 0.0 - Partly cloudy 10 - - - -
22/11:00pm 23.2 N 6 10 1018.2 - 0.0 - Partly cloudy 10 - - - -
22/10:30pm 23.3 NNE 7 11 1018.1 - 0.0 - - 10 - - - -
22/10:00pm 23.5 N 7 13 1018.1 - 0.0 - Partly cloudy 10 - - - -
22/09:30pm 23.5 NNE 6 11 1018.1 - 0.0 - Partly cloudy 10 - - - -
22/09:00pm 23.4 NNE 7 11 1017.8 - 0.0 - Partly cloudy 10 - - - -
22/08:30pm 23.4 N 6 12 1017.6 - 0.0 - Partly cloudy 10 - - - -
22/08:22pm 23.5 N 6 12 1017.6 - 0.0 - Partly cloudy 10 - - - -
22/08:04pm 23.4 N 6 13 1017.3 - 0.0 - Partly cloudy 10 - - - -
22/08:00pm 23.5 NNE 7 11 1017.3 - 0.0 - Partly cloudy 10 - - - -
22/07:43pm 23.5 N 7 13 1017.1 - 0.0 - Partly cloudy 10 - - - -
22/07:30pm 23.4 N 6 11 1017.0 - 0.0 - Partly cloudy 10 - - - -
22/07:00pm 23.5 N 5 10 1016.9 - 0.0 - - 10 - - - -
22/06:30pm 23.6 NNE 5 9 1016.9 - 0.0 - - 10 - - - -
22/06:00pm 23.8 NNE 6 11 1016.9 - 0.0 - Mostly clear 10 - - - -
22/05:30pm 23.7 NNE 7 13 1016.8 - 0.0 - Partly cloudy 10 - - - -
22/05:00pm 23.8 NNE 7 12 1016.6 - 0.0 - Partly cloudy 10 - - - -
22/04:30pm 24.1 NNE 7 10 1016.7 - 0.0 - Partly cloudy 10 - - - -
22/04:00pm 24.4 NE 7 12 1016.7 - 0.0 - - 10 - - - -
22/03:30pm 24.3 NNE 9 13 1016.9 - 0.0 - Partly cloudy 10 - - - -
22/03:00pm 24.8 NNE 9 13 1017.0 - 0.0 - Mostly clear 10 - - - -
22/02:30pm 25.3 NNE 11 14 1017.2 - 0.0 - - 10 - - - -
22/02:00pm 25.2 NNE 11 13 1017.4 - 0.0 - - 10 - - - -
22/01:30pm 24.7 NNE 11 13 1017.7 - 0.0 - Mostly clear 10 - - - -
22/01:00pm 25.5 NNE 11 13 1018.1 - 0.0 - Mostly clear 10 - - - -
22/12:30pm 25.3 NNE 12 13 1018.4 - 0.0 - Mostly clear 10 - - - -
22/12:00pm 24.5 NNE 12 14 1018.7 - 0.0 - Mostly clear 10 - - - -
22/11:30am 25.6 NNE 11 14 1019.0 - 0.0 - Mostly clear 10 - - - -
22/11:00am 25.5 NE 12 15 1019.2 - 0.0 - Mostly clear 10 - - - -
22/10:30am 26.0 NNE 12 15 1019.5 - 0.0 - Mostly clear 10 - - - -
22/10:00am 25.2 NNE 12 15 1019.6 - 0.0 - Mostly clear 10 - - - -
22/09:30am 25.1 NNE 13 16 1019.6 - 0.0 - Mostly clear 10 - - - -
22/09:00am 24.0 NNE 12 15 1019.6 - 0.0 - Mostly clear 10 - - - -
22/08:30am 24.4 NNE 10 17 1019.6 - 0.0 - Mostly clear 10 - - - -
22/08:00am 24.2 NE 10 16 1019.4 - 0.0 - Mostly clear 10 - - - -
22/07:30am 23.6 NNE 11 16 1019.1 - 0.0 - Partly cloudy 10 - - - -
22/07:00am 23.2 NE 11 15 1018.8 - 0.0 - Partly cloudy 10 - - - -
22/06:30am 23.0 NNE 9 13 1018.8 - 0.0 - Partly cloudy 10 - - - -
22/06:00am 23.0 NNE 10 15 1018.6 - 0.0 - Mostly clear 10 - - - -
22/05:30am 23.0 NNE 9 13 1018.4 - 0.0 - Partly cloudy 10 - - - -
22/05:00am 23.0 NE 10 14 1018.1 - 0.0 - Partly cloudy 10 - - - -
22/04:30am 23.2 NE 8 14 1018.0 - 0.0 - Cloudy 10 - - - -
22/04:00am 23.0 ENE 8 10 1018.1 - 0.0 - Partly cloudy 10 - - - -
22/03:30am 22.5 NE 12 16 1018.3 - 0.0 - Partly cloudy 10 - - - -
22/03:00am 22.8 NE 10 12 1018.6 - 0.0 - Mostly clear 10 - - - -
22/02:30am 23.0 NE 11 13 1019.0 - 0.0 - Partly cloudy 10 - - - -
22/02:00am 22.9 NE 11 14 1019.2 - 0.0 - Partly cloudy 10 - - - -
22/01:30am 22.9 NE 11 13 1019.5 - 0.0 - Partly cloudy 10 - - - -
22/01:29am 23.0 NE 10 13 1019.5 - 0.0 - Partly cloudy 10 - - - -
22/01:00am 23.1 NE 12 14 1019.7 - 0.0 - Partly cloudy 10 - - - -
22/12:30am 23.2 NE 12 15 1019.8 - 0.0 - Partly cloudy 10 - - - -
22/12:21am 23.0 NE 12 15 1019.8 - 0.0 - Partly cloudy 10 - - - -
22/12:10am 23.1 NE 12 14 1019.8 - 0.0 - Partly cloudy 10 - - - -
22/12:00am 23.0 NE 12 15 1019.9 - 0.0 - Mostly clear 10 - - - -
 
Date/Time
EDT
Temp
°C
Wind Pressure Rain since
9am
mm
Weather Cloud Vis
km
Sea
Height
m
Swell
Dir  Spd
kts
Gust
kts
hPa Trend Height
m
Period
s
Dir
21/11:30pm 23.0 NE 12 14 1019.9 - 0.0 - Partly cloudy 10 - - - -
21/11:00pm 23.1 NE 12 15 1020.1 - 0.0 - Partly cloudy 10 - - - -
21/10:30pm 23.1 NE 13 15 1020.0 - 0.0 - Partly cloudy 10 - - - -
21/10:00pm 23.1 NE 12 15 1020.2 - 0.0 - Partly cloudy 10 - - - -
21/09:30pm 23.2 NE 13 15 1020.0 - 0.0 - - 10 - - - -

Other Formats:

Comma delimited format used in spreadsheet applications
http://www.bom.gov.au/fwo/IDN60701/IDN60701.94995.axf

JavaScript Object Notation format (JSON) in row-major order
http://www.bom.gov.au/fwo/IDN60701/IDN60701.94995.json